Terminal Aerodrome Forecast
Issued by NWS Springfield, MO

Home | Current Version | Previous Version | Text Only | Print | Product List | Glossary On
Versions: 1 2 3 4 5 6 7 8 9 10 11 12 13 14 15 16 17 18 19 20 21 22 23 24 25 26 27 28 29 30 31 32 33 34 35 36 37 38 39 40 41 42
000
FTUS43 KSGF 291720
TAFSGF
TAF
KSGF 291720Z 2918/3018 07010KT 3SM -TSRA BR BKN007 OVC015CB
      TEMPO 2918/2921 1SM +TSRA BR OVC007CB
     FM292100 16014G23KT 4SM -TSRA BR OVC025CB
     FM301000 15010KT P6SM -SHRA VCTS OVC015CB
     FM301400 17015G25KT P6SM OVC025=

USA.gov is the U.S. government's official web portal to all federal, state and local government web resources and services.